Time;durP1;ratioP1;P1;durP2;ratioP2;P2;SDS_P1;SDS_P2;PMS_P1;PMS_P2;Temp;Humidity;BMP_temperature;BMP_pressure;BME280_temperature;BME280_humidity;BME280_pressure;Samples;Min_cycle;Max_cycle;Signal;HPM_P1;HPM_P2
2022/04/01 00:00:01;;;;;;;9.07;8.17;;;3.50;99.90;;;;;;5094081;28;20197;-59
2022/04/01 00:02:26;;;;;;;9.73;8.80;;;3.50;99.90;;;;;;5094622;28;20181;-59
2022/04/01 00:04:52;;;;;;;9.53;8.70;;;3.50;99.90;;;;;;5094967;28;20614;-59
2022/04/01 00:07:18;;;;;;;10.97;10.00;;;3.40;99.90;;;;;;5094426;28;20560;-59
2022/04/01 00:09:44;;;;;;;10.50;9.50;;;3.50;99.90;;;;;;5094753;28;20173;-59
2022/04/01 00:12:10;;;;;;;10.20;9.20;;;3.50;99.90;;;;;;5094635;28;20179;-59
2022/04/01 00:14:36;;;;;;;10.97;9.87;;;3.40;99.90;;;;;;5094502;28;20181;-59
2022/04/01 00:17:02;;;;;;;11.23;10.13;;;3.40;99.90;;;;;;5094444;28;20180;-59
2022/04/01 00:19:29;;;;;;;10.67;9.57;;;3.40;99.90;;;;;;5094325;28;20177;-59
2022/04/01 00:21:55;;;;;;;9.70;8.80;;;3.40;99.90;;;;;;5076083;28;20628;-59
2022/04/01 00:24:22;;;;;;;10.00;9.00;;;3.40;99.90;;;;;;5076559;28;20185;-59
2022/04/01 00:26:47;;;;;;;9.97;9.07;;;3.30;99.90;;;;;;5094323;28;20210;-59
2022/04/01 00:29:16;;;;;;;9.53;8.63;;;3.40;99.90;;;;;;5094202;28;20545;-60
2022/04/01 00:31:48;;;;;;;8.97;7.97;;;3.40;99.90;;;;;;5093826;28;20166;-60
2022/04/01 00:34:17;;;;;;;6.67;6.07;;;3.40;99.90;;;;;;5093935;28;20181;-60
2022/04/01 00:36:49;;;;;;;5.20;4.73;;;3.30;99.90;;;;;;5094209;28;20188;-59
2022/04/01 00:39:17;;;;;;;5.10;4.60;;;3.10;99.90;;;;;;5094255;28;20213;-59
2022/04/01 00:41:44;;;;;;;4.60;4.20;;;3.00;99.90;;;;;;5094338;28;20169;-60
2022/04/01 00:44:14;;;;;;;4.00;3.70;;;3.00;99.90;;;;;;5094686;28;20227;-59
2022/04/01 00:46:42;;;;;;;4.07;3.70;;;3.00;99.90;;;;;;5093767;28;20777;-59
2022/04/01 00:49:08;;;;;;;4.43;4.03;;;3.00;99.90;;;;;;5094007;28;20169;-59
2022/04/01 00:51:34;;;;;;;4.40;3.93;;;3.00;99.90;;;;;;5093972;28;20173;-59
2022/04/01 00:54:01;;;;;;;4.40;4.00;;;2.90;99.90;;;;;;5093842;28;20173;-59
2022/04/01 00:56:31;;;;;;;3.70;3.40;;;2.80;99.90;;;;;;5093759;28;20177;-59
2022/04/01 00:58:58;;;;;;;3.70;3.40;;;2.80;99.90;;;;;;5094218;28;20247;-60
2022/04/01 01:01:24;;;;;;;3.90;3.60;;;2.80;99.90;;;;;;5093565;28;20256;-60
2022/04/01 01:03:50;;;;;;;4.20;3.80;;;2.80;99.90;;;;;;5093680;28;20200;-59
2022/04/01 01:06:17;;;;;;;4.23;3.83;;;2.80;99.90;;;;;;5093638;28;20205;-59
2022/04/01 01:08:42;;;;;;;9.40;4.07;;;2.80;99.90;;;;;;5093616;28;20655;-59
2022/04/01 01:11:09;;;;;;;3.97;3.57;;;2.70;99.90;;;;;;5092617;28;20177;-58
2022/04/01 01:13:34;;;;;;;3.93;3.63;;;2.70;99.90;;;;;;5093697;28;20204;-59
2022/04/01 01:16:00;;;;;;;4.00;3.70;;;2.60;99.90;;;;;;5093343;28;20203;-59
2022/04/01 01:18:26;;;;;;;4.27;3.90;;;2.60;99.90;;;;;;5093594;28;20177;-59
2022/04/01 01:20:51;;;;;;;4.47;4.07;;;2.70;99.90;;;;;;5093567;28;20185;-59
2022/04/01 01:23:17;;;;;;;4.57;4.03;;;2.60;99.90;;;;;;5093562;28;20659;-59
2022/04/01 01:25:45;;;;;;;4.60;3.67;;;2.60;99.90;;;;;;5093356;28;20182;-59
2022/04/01 01:28:11;;;;;;;3.97;3.67;;;2.50;99.90;;;;;;5093279;28;20196;-59
2022/04/01 01:30:37;;;;;;;3.70;3.40;;;2.60;99.90;;;;;;5093158;28;20315;-59
2022/04/01 01:33:04;;;;;;;3.73;3.43;;;2.50;99.90;;;;;;5093393;28;20263;-59
2022/04/01 01:35:29;;;;;;;3.90;3.57;;;2.50;99.90;;;;;;5093322;28;20174;-60
2022/04/01 01:37:55;;;;;;;3.10;2.90;;;2.50;99.90;;;;;;5093176;28;20198;-59
2022/04/01 01:40:23;;;;;;;4.27;3.60;;;2.50;99.90;;;;;;5093169;28;20658;-59
2022/04/01 01:42:49;;;;;;;3.60;3.30;;;2.60;99.90;;;;;;5093120;28;20505;-59
2022/04/01 01:45:15;;;;;;;3.43;3.13;;;2.60;99.90;;;;;;5093349;28;20180;-59
2022/04/01 01:47:41;;;;;;;3.40;3.10;;;2.50;99.90;;;;;;5093201;28;20221;-59
2022/04/01 01:55:35;;;;;;;3.43;3.10;;;2.60;99.90;;;;;;5093286;28;20692;-59
2022/04/01 01:58:01;;;;;;;3.83;3.43;;;2.50;99.90;;;;;;5093209;28;20176;-59
2022/04/01 02:00:27;;;;;;;3.57;3.27;;;2.60;99.90;;;;;;5092962;28;20259;-59
2022/04/01 02:02:53;;;;;;;3.60;3.30;;;2.70;99.90;;;;;;5075150;28;20640;-59
2022/04/01 02:05:19;;;;;;;2.50;2.30;;;2.60;99.90;;;;;;5093001;28;20193;-59
2022/04/01 02:07:47;;;;;;;2.40;2.20;;;2.50;99.90;;;;;;5092858;28;20206;-59
2022/04/01 02:10:15;;;;;;;2.53;2.33;;;2.40;99.90;;;;;;5092820;28;20605;-59
2022/04/01 02:12:42;;;;;;;3.13;2.33;;;2.30;99.90;;;;;;5074903;28;20608;-59
2022/04/01 02:15:10;;;;;;;3.27;2.43;;;2.20;99.90;;;;;;5093005;28;20166;-59
2022/04/01 02:17:40;;;;;;;4.00;3.17;;;2.30;99.90;;;;;;5092978;28;20176;-59
2022/04/01 02:20:09;;;;;;;3.10;2.80;;;2.30;99.90;;;;;;5092809;28;20177;-59
2022/04/01 02:22:36;;;;;;;3.03;2.73;;;2.20;99.90;;;;;;5095194;28;20176;-59
2022/04/01 02:25:04;;;;;;;3.33;2.63;;;2.20;99.90;;;;;;5078561;28;20550;-59
2022/04/01 02:27:30;;;;;;;3.50;3.20;;;2.30;99.90;;;;;;5096544;28;20210;-59
2022/04/01 02:29:56;;;;;;;3.13;2.80;;;2.30;99.90;;;;;;5096632;28;20263;-59
2022/04/01 02:32:25;;;;;;;3.43;3.13;;;2.30;99.90;;;;;;5078621;28;20182;-59
2022/04/01 02:34:50;;;;;;;3.30;3.00;;;2.20;99.90;;;;;;5096455;28;20181;-59
2022/04/01 02:37:21;;;;;;;3.53;3.20;;;2.10;99.90;;;;;;5096579;28;20230;-58
2022/04/01 02:39:47;;;;;;;3.13;2.90;;;2.20;99.90;;;;;;5096587;28;20212;-59
2022/04/01 02:42:13;;;;;;;3.30;3.00;;;2.20;99.90;;;;;;5096497;28;20635;-59
2022/04/01 02:44:39;;;;;;;3.53;3.23;;;2.20;99.90;;;;;;5096584;28;20260;-59
2022/04/01 02:47:06;;;;;;;3.80;3.17;;;2.10;99.90;;;;;;5096027;28;20213;-59
2022/04/01 02:49:32;;;;;;;3.47;3.17;;;2.10;99.90;;;;;;5095973;28;20194;-59
2022/04/01 02:51:58;;;;;;;3.40;3.10;;;2.20;99.90;;;;;;5096073;28;20172;-59
2022/04/01 02:54:24;;;;;;;4.10;3.20;;;2.10;99.90;;;;;;5096146;28;20181;-59
2022/04/01 02:56:50;;;;;;;3.10;2.90;;;2.20;99.90;;;;;;5095894;28;20177;-59
2022/04/01 02:59:15;;;;;;;3.40;2.93;;;2.00;99.90;;;;;;5096017;28;20168;-59
2022/04/01 03:01:42;;;;;;;2.93;2.73;;;2.00;99.90;;;;;;5096265;28;20569;-59
2022/04/01 03:04:09;;;;;;;3.10;2.90;;;1.90;99.90;;;;;;5095857;28;20188;-59
2022/04/01 03:06:44;;;;;;;3.63;3.33;;;1.90;99.90;;;;;;5095671;28;20547;-59
2022/04/01 03:09:13;;;;;;;4.77;3.20;;;2.00;99.90;;;;;;5077855;28;20215;-59
2022/04/01 03:11:39;;;;;;;3.37;3.07;;;2.00;99.90;;;;;;5095801;28;20254;-59
2022/04/01 03:14:08;;;;;;;3.60;3.00;;;2.00;99.90;;;;;;5095735;28;20169;-59
2022/04/01 03:16:35;;;;;;;3.30;3.00;;;2.00;99.90;;;;;;5095592;28;20580;-59
2022/04/01 03:19:01;;;;;;;3.40;3.10;;;2.00;99.90;;;;;;5095509;28;20169;-59
2022/04/01 03:21:27;;;;;;;3.07;2.87;;;2.10;99.90;;;;;;5095722;28;20218;-59
2022/04/01 03:23:53;;;;;;;4.50;3.63;;;2.10;99.90;;;;;;5095656;28;20197;-59
2022/04/01 03:26:20;;;;;;;4.20;3.33;;;2.10;99.90;;;;;;5095212;28;20702;-59
2022/04/01 03:28:46;;;;;;;3.90;3.50;;;2.10;99.90;;;;;;5095400;28;20181;-59
2022/04/01 03:31:14;;;;;;;4.10;3.10;;;2.10;99.90;;;;;;5095260;28;20535;-59
2022/04/01 03:33:41;;;;;;;3.93;3.53;;;2.10;99.90;;;;;;5094496;28;20173;-59
2022/04/01 03:36:08;;;;;;;4.13;3.47;;;2.10;99.90;;;;;;5095556;28;20172;-59
2022/04/01 03:38:35;;;;;;;4.03;3.57;;;2.00;99.90;;;;;;5095169;28;20628;-59
2022/04/01 03:41:02;;;;;;;3.87;3.57;;;2.00;99.90;;;;;;5095203;28;20175;-59
2022/04/01 03:43:29;;;;;;;3.93;3.63;;;2.00;99.90;;;;;;5095156;28;20173;-59
2022/04/01 03:45:58;;;;;;;3.73;3.43;;;2.00;99.90;;;;;;5094847;28;22085;-59
2022/04/01 03:48:45;;;;;;;4.43;4.03;;;1.90;99.90;;;;;;5095137;28;20176;-59
2022/04/01 03:51:25;;;;;;;4.50;4.03;;;1.90;99.90;;;;;;5095022;28;20198;-59
2022/04/01 03:54:02;;;;;;;4.27;3.87;;;1.90;99.90;;;;;;5095140;28;20234;-59
2022/04/01 03:56:37;;;;;;;4.87;3.73;;;2.00;99.90;;;;;;5094788;28;20227;-59
2022/04/01 03:59:09;;;;;;;4.53;3.93;;;1.90;99.90;;;;;;5076618;28;20496;-59
2022/04/01 04:01:36;;;;;;;4.00;3.47;;;1.90;99.90;;;;;;5094677;28;20628;-59
2022/04/01 04:04:03;;;;;;;4.37;3.97;;;1.80;99.90;;;;;;5076377;28;20249;-59
2022/04/01 04:06:29;;;;;;;4.47;3.80;;;1.70;99.90;;;;;;5094492;28;20208;-59
2022/04/01 04:09:00;;;;;;;4.53;4.13;;;1.70;99.90;;;;;;5094419;28;20272;-59
2022/04/01 04:11:28;;;;;;;4.57;3.93;;;1.80;99.90;;;;;;5094711;28;20264;-59
2022/04/01 04:13:58;;;;;;;4.60;4.07;;;1.80;99.90;;;;;;5094661;28;20203;-59
2022/04/01 04:16:46;;;;;;;4.87;4.10;;;1.70;99.90;;;;;;5076351;28;20199;-59
2022/04/01 04:19:38;;;;;;;4.73;4.00;;;1.70;99.90;;;;;;5094393;28;20261;-59
2022/04/01 04:22:13;;;;;;;4.87;4.47;;;1.70;99.90;;;;;;5094484;28;20161;-59
2022/04/01 04:24:48;;;;;;;5.83;5.33;;;1.70;99.90;;;;;;5094246;28;20519;-59
2022/04/01 04:27:16;;;;;;;6.17;5.57;;;1.60;99.90;;;;;;5094299;28;20198;-59
2022/04/01 04:29:48;;;;;;;6.27;5.50;;;1.70;99.90;;;;;;5094325;28;20197;-59
2022/04/01 04:32:24;;;;;;;6.30;5.77;;;1.60;99.90;;;;;;5094508;28;20173;-59
2022/04/01 04:34:51;;;;;;;8.53;7.47;;;1.50;99.90;;;;;;5094256;28;20172;-59
2022/04/01 04:37:22;;;;;;;8.00;7.20;;;1.50;99.90;;;;;;5094147;28;20181;-59
2022/04/01 04:39:50;;;;;;;9.40;8.50;;;1.50;99.90;;;;;;5094035;28;20193;-59
2022/04/01 04:42:16;;;;;;;9.50;8.53;;;1.50;99.90;;;;;;5093853;28;20635;-59
2022/04/01 04:44:44;;;;;;;9.00;8.10;;;1.50;99.90;;;;;;5094007;28;20217;-59
2022/04/01 04:47:12;;;;;;;10.07;9.07;;;1.40;99.90;;;;;;5093989;28;20211;-59
2022/04/01 04:49:42;;;;;;;11.10;9.90;;;1.30;99.90;;;;;;5094010;28;20205;-59
2022/04/01 04:52:09;;;;;;;9.90;9.00;;;1.30;99.90;;;;;;5094186;28;20174;-59
2022/04/01 04:54:39;;;;;;;11.73;10.60;;;1.30;99.90;;;;;;5075577;28;20172;-59
2022/04/01 04:57:06;;;;;;;11.80;10.57;;;1.30;99.90;;;;;;5093890;28;20216;-58
2022/04/01 04:59:34;;;;;;;13.33;11.93;;;1.40;99.90;;;;;;5093450;28;20509;-55
2022/04/01 05:02:05;;;;;;;13.73;12.33;;;1.30;99.90;;;;;;5075490;28;20181;-58
2022/04/01 05:04:56;;;;;;;12.23;11.10;;;1.30;99.90;;;;;;5092768;28;20207;-58
2022/04/01 05:07:29;;;;;;;10.37;9.37;;;1.30;99.90;;;;;;5093432;28;20212;-57
2022/04/01 05:10:36;;;;;;;10.03;9.03;;;1.30;99.90;;;;;;5093659;28;20177;-58
2022/04/01 05:13:41;;;;;;;14.23;12.50;;;1.30;99.90;;;;;;4992594;28;20185;-58
2022/04/01 05:16:17;;;;;;;12.00;10.80;;;1.20;99.90;;;;;;5094500;28;20180;-58
2022/04/01 05:18:55;;;;;;;13.13;11.83;;;1.30;99.90;;;;;;5092079;28;20165;-58
2022/04/01 05:21:26;;;;;;;14.33;12.83;;;1.30;99.90;;;;;;5093524;28;20170;-58
2022/04/01 05:23:55;;;;;;;15.57;14.00;;;1.30;99.90;;;;;;5093321;28;20174;-58
2022/04/01 05:26:25;;;;;;;15.13;13.67;;;1.20;99.90;;;;;;5093497;28;20232;-58
2022/04/01 05:29:00;;;;;;;13.30;11.97;;;1.20;99.90;;;;;;5093501;28;20182;-58
2022/04/01 05:31:42;;;;;;;13.23;11.93;;;1.30;99.90;;;;;;5093411;28;20169;-58
2022/04/01 05:34:13;;;;;;;14.20;12.63;;;1.30;99.90;;;;;;5093182;28;20174;-58
2022/04/01 05:36:39;;;;;;;15.13;13.33;;;1.30;99.90;;;;;;5075378;28;20261;-58
2022/04/01 05:39:05;;;;;;;12.97;11.77;;;1.20;99.90;;;;;;5093362;28;20177;-58
2022/04/01 05:41:31;;;;;;;12.63;11.43;;;1.30;99.90;;;;;;5093294;28;20318;-58
2022/04/01 05:43:57;;;;;;;11.53;10.43;;;1.30;99.90;;;;;;5093226;28;20196;-58
2022/04/01 05:46:25;;;;;;;10.43;9.37;;;1.30;99.90;;;;;;5093080;28;20202;-58
2022/04/01 05:48:53;;;;;;;10.27;9.27;;;1.30;99.90;;;;;;5092990;28;20172;-58
2022/04/01 05:51:19;;;;;;;9.77;8.80;;;1.30;99.90;;;;;;5092978;28;20638;-58
2022/04/01 05:53:46;;;;;;;9.03;8.13;;;1.30;99.90;;;;;;5093156;28;20247;-58
2022/04/01 05:56:14;;;;;;;8.43;7.63;;;1.30;99.90;;;;;;5093318;28;20512;-58
2022/04/01 05:58:42;;;;;;;7.27;6.57;;;1.30;99.90;;;;;;5097114;28;20169;-58
2022/04/01 06:01:44;;;;;;;6.67;5.33;;;1.30;99.90;;;;;;5097069;28;20165;-58
2022/04/01 06:04:25;;;;;;;7.07;6.20;;;1.30;99.90;;;;;;5097068;28;20194;-58
2022/04/01 06:07:19;;;;;;;8.20;7.20;;;1.30;99.90;;;;;;5096886;28;20232;-58
2022/04/01 06:10:04;;;;;;;6.03;5.43;;;1.30;99.90;;;;;;5057791;28;20308;-58
2022/04/01 06:12:57;;;;;;;7.23;6.53;;;1.30;99.90;;;;;;5097067;28;20334;-58
2022/04/01 06:15:26;;;;;;;7.83;6.67;;;1.40;99.90;;;;;;5096804;28;20162;-58
2022/04/01 06:18:15;;;;;;;6.87;6.17;;;1.30;99.90;;;;;;5078628;28;20192;-58
2022/04/01 06:20:41;;;;;;;8.30;6.67;;;1.30;99.90;;;;;;5097142;28;20169;-58
2022/04/01 06:23:16;;;;;;;8.97;6.40;;;1.30;99.90;;;;;;5097381;28;20164;-58
2022/04/01 06:25:51;;;;;;;7.03;6.33;;;1.40;99.90;;;;;;5096615;28;20178;-58
2022/04/01 06:28:24;;;;;;;7.30;6.37;;;1.40;99.90;;;;;;5096603;28;20263;-58
2022/04/01 06:30:52;;;;;;;6.90;6.23;;;1.40;99.90;;;;;;5096797;28;20174;-58
2022/04/01 06:33:30;;;;;;;6.63;6.00;;;1.40;99.90;;;;;;5097294;28;20259;-58
2022/04/01 06:36:00;;;;;;;8.47;6.73;;;1.40;99.90;;;;;;5097100;28;20516;-58
2022/04/01 06:38:46;;;;;;;7.60;6.80;;;1.40;99.90;;;;;;5096289;28;20173;-58
2022/04/01 06:41:20;;;;;;;8.03;6.90;;;1.40;99.90;;;;;;5096349;28;20778;-58
2022/04/01 06:43:47;;;;;;;8.43;7.63;;;1.40;99.90;;;;;;5096494;28;20631;-58
2022/04/01 06:46:13;;;;;;;7.37;6.43;;;1.40;99.90;;;;;;5096230;28;20202;-58
2022/04/01 06:48:40;;;;;;;7.67;6.97;;;1.40;99.90;;;;;;5078064;28;20529;-58
2022/04/01 06:51:08;;;;;;;8.27;6.60;;;1.40;99.90;;;;;;5096058;28;20681;-58
2022/04/01 06:53:36;;;;;;;6.73;5.90;;;1.40;99.90;;;;;;5095990;28;20170;-58
2022/04/01 06:56:03;;;;;;;8.10;6.73;;;1.50;99.90;;;;;;5096129;28;20188;-58
2022/04/01 06:58:30;;;;;;;8.87;6.50;;;1.50;99.90;;;;;;5096012;28;20173;-58
2022/04/01 07:00:56;;;;;;;8.10;7.40;;;1.50;99.90;;;;;;5095949;28;20177;-57
2022/04/01 07:03:23;;;;;;;7.87;7.13;;;1.40;99.90;;;;;;5095989;28;20188;-58
2022/04/01 07:05:49;;;;;;;6.53;5.93;;;1.40;99.90;;;;;;5060865;28;20173;-58
2022/04/01 07:08:16;;;;;;;7.73;7.03;;;1.40;99.90;;;;;;5094784;28;20181;-58
2022/04/01 07:10:42;;;;;;;6.77;6.10;;;1.40;99.90;;;;;;5095811;28;20267;-58
2022/04/01 07:13:08;;;;;;;8.47;5.47;;;1.50;99.90;;;;;;5095684;28;20256;-58
2022/04/01 07:15:34;;;;;;;6.90;5.50;;;1.40;99.90;;;;;;5095679;28;20574;-58
2022/04/01 07:18:00;;;;;;;7.87;5.40;;;1.40;99.90;;;;;;5095960;28;20182;-58
2022/04/01 07:20:26;;;;;;;6.57;5.07;;;1.40;99.90;;;;;;5095550;28;20170;-58
2022/04/01 07:22:53;;;;;;;6.07;5.00;;;1.40;99.90;;;;;;5077892;28;20564;-58
2022/04/01 07:25:19;;;;;;;5.53;5.03;;;1.50;99.90;;;;;;5095657;28;20164;-58
2022/04/01 07:27:45;;;;;;;5.33;4.83;;;1.50;99.90;;;;;;5095428;28;20205;-58
2022/04/01 07:30:11;;;;;;;6.37;5.77;;;1.50;99.90;;;;;;5095419;28;20177;-57
2022/04/01 07:32:37;;;;;;;6.03;5.20;;;1.50;99.90;;;;;;5095371;28;20181;-57
2022/04/01 07:35:14;;;;;;;6.07;5.00;;;1.50;99.90;;;;;;5095204;28;20234;-58
2022/04/01 07:37:42;;;;;;;5.63;4.90;;;1.50;99.90;;;;;;5095485;28;20177;-58
2022/04/01 07:40:09;;;;;;;5.77;4.60;;;1.50;99.90;;;;;;5095523;28;20171;-57
2022/04/01 07:42:35;;;;;;;7.00;4.60;;;1.50;99.90;;;;;;5077359;28;20170;-58
2022/04/01 07:45:04;;;;;;;5.87;4.93;;;1.40;99.90;;;;;;5095041;28;20239;-58
2022/04/01 07:47:32;;;;;;;4.87;4.37;;;1.50;99.90;;;;;;5094929;28;20205;-58
2022/04/01 07:49:59;;;;;;;6.37;5.40;;;1.60;99.90;;;;;;5094882;28;20248;-58
2022/04/01 07:52:24;;;;;;;10.57;9.67;;;1.60;99.90;;;;;;5077209;28;20218;-58
2022/04/01 07:54:51;;;;;;;6.40;5.70;;;1.60;99.90;;;;;;5095085;28;20173;-58
2022/04/01 07:57:18;;;;;;;5.70;4.73;;;1.70;99.90;;;;;;5095171;28;20176;-58
2022/04/01 07:59:44;;;;;;;16.03;9.93;;;1.70;99.90;;;;;;5094807;28;20256;-58
2022/04/01 08:02:11;;;;;;;6.53;5.30;;;1.70;99.90;;;;;;5094519;28;20184;-58
2022/04/01 08:04:37;;;;;;;5.20;4.70;;;1.70;99.90;;;;;;5094798;28;20643;-58
2022/04/01 08:07:03;;;;;;;6.40;4.87;;;1.70;99.90;;;;;;5094726;28;20247;-58
2022/04/01 08:09:28;;;;;;;8.93;6.90;;;1.70;99.90;;;;;;5076507;28;20169;-58
2022/04/01 08:11:55;;;;;;;6.17;5.17;;;1.70;99.90;;;;;;5094765;28;20169;-58
2022/04/01 08:14:21;;;;;;;5.97;4.80;;;1.70;99.90;;;;;;5094583;28;20209;-58
2022/04/01 08:16:48;;;;;;;9.87;5.00;;;1.70;99.90;;;;;;5094425;28;20250;-58
2022/04/01 08:19:14;;;;;;;5.03;4.43;;;1.70;99.90;;;;;;5094162;28;20176;-58
2022/04/01 08:21:41;;;;;;;5.03;4.03;;;1.70;99.90;;;;;;5094471;28;20185;-58
2022/04/01 08:24:07;;;;;;;5.07;4.43;;;1.80;99.90;;;;;;5094436;28;20178;-57
2022/04/01 08:26:33;;;;;;;4.87;4.17;;;1.80;99.90;;;;;;5094154;28;20231;-58
2022/04/01 08:28:59;;;;;;;5.57;4.13;;;1.80;99.90;;;;;;5076276;28;20242;-58
2022/04/01 08:31:25;;;;;;;9.77;4.30;;;1.80;99.90;;;;;;5094130;28;20173;-58
2022/04/01 08:33:53;;;;;;;7.00;5.30;;;1.80;99.90;;;;;;5094032;28;20177;-58
2022/04/01 08:36:19;;;;;;;5.97;5.00;;;1.90;99.90;;;;;;5094149;28;20185;-58
2022/04/01 08:38:45;;;;;;;5.40;4.90;;;1.90;99.90;;;;;;5094081;28;20631;-58
2022/04/01 08:41:20;;;;;;;5.13;4.27;;;1.90;99.90;;;;;;5075967;28;20521;-58
2022/04/01 08:43:47;;;;;;;4.50;4.10;;;1.90;99.90;;;;;;5093938;28;20169;-58
2022/04/01 08:46:15;;;;;;;5.93;4.40;;;1.90;99.90;;;;;;5093864;28;20536;-58
2022/04/01 08:48:41;;;;;;;7.40;4.70;;;1.90;99.90;;;;;;5093858;28;20621;-58
2022/04/01 08:51:07;;;;;;;5.73;4.40;;;1.90;99.90;;;;;;5093866;28;20183;-58
2022/04/01 08:53:37;;;;;;;5.07;4.30;;;1.90;99.90;;;;;;5093930;28;20658;-58
2022/04/01 08:56:05;;;;;;;4.50;3.97;;;1.90;99.90;;;;;;5093675;28;20173;-58
2022/04/01 08:58:31;;;;;;;5.77;4.80;;;2.00;99.90;;;;;;5093604;28;20165;-58
2022/04/01 09:00:58;;;;;;;3.23;2.93;;;2.10;99.90;;;;;;5093850;28;20174;-58
2022/04/01 09:03:24;;;;;;;5.87;4.00;;;2.20;99.90;;;;;;5093502;28;20197;-58
2022/04/01 09:05:55;;;;;;;5.23;4.07;;;2.20;99.90;;;;;;5093765;28;20519;-58
2022/04/01 09:08:24;;;;;;;5.60;4.50;;;2.30;99.90;;;;;;5093451;28;20193;-58
2022/04/01 09:11:01;;;;;;;5.57;4.57;;;2.20;99.90;;;;;;5093475;28;20259;-58
2022/04/01 09:13:42;;;;;;;5.30;4.40;;;2.20;99.90;;;;;;5093751;28;20219;-58
2022/04/01 09:16:08;;;;;;;5.33;4.40;;;2.20;99.90;;;;;;5094440;28;20504;-58
2022/04/01 09:18:36;;;;;;;4.70;4.30;;;2.20;99.90;;;;;;5093652;28;20533;-58
2022/04/01 09:21:02;;;;;;;5.50;4.23;;;2.10;99.90;;;;;;5093417;28;20171;-58
2022/04/01 09:23:29;;;;;;;4.80;4.20;;;2.10;99.90;;;;;;5075177;28;20583;-57
2022/04/01 09:25:55;;;;;;;4.90;3.77;;;2.10;99.90;;;;;;5093270;28;20164;-58
2022/04/01 09:28:37;;;;;;;7.93;4.10;;;2.10;99.90;;;;;;5093146;28;20516;-58
2022/04/01 09:31:07;;;;;;;5.67;4.90;;;2.00;99.90;;;;;;5092466;28;20161;-58
2022/04/01 09:33:47;;;;;;;4.83;4.40;;;2.00;99.90;;;;;;5093486;28;20176;-58
2022/04/01 09:36:36;;;;;;;4.40;3.97;;;2.00;99.90;;;;;;5093571;28;20176;-57
2022/04/01 09:39:06;;;;;;;7.83;4.60;;;2.10;99.90;;;;;;5093421;28;20169;-57
2022/04/01 09:41:36;;;;;;;8.27;6.63;;;2.10;99.90;;;;;;5093245;28;20168;-58
2022/04/01 09:44:15;;;;;;;4.73;3.70;;;2.10;99.90;;;;;;5093266;28;20175;-58
2022/04/01 09:47:06;;;;;;;5.63;4.20;;;2.10;99.90;;;;;;5093174;28;20203;-58
2022/04/01 09:49:45;;;;;;;6.40;4.97;;;2.10;99.90;;;;;;5092492;28;20547;-58
2022/04/01 09:52:13;;;;;;;9.50;8.50;;;2.00;99.90;;;;;;5093143;28;20170;-58
2022/04/01 09:54:48;;;;;;;5.10;4.67;;;2.10;99.90;;;;;;5093086;28;20211;-58
2022/04/01 09:57:19;;;;;;;4.43;3.20;;;2.30;99.90;;;;;;5093198;28;20184;-58
2022/04/01 09:59:47;;;;;;;4.23;3.10;;;2.40;99.90;;;;;;5092967;28;20251;-58
2022/04/01 10:02:13;;;;;;;4.30;3.43;;;2.50;99.90;;;;;;5074877;28;20173;-58
2022/04/01 10:04:40;;;;;;;3.60;2.63;;;2.60;99.90;;;;;;5093231;28;20526;-58
2022/04/01 10:07:06;;;;;;;3.53;2.60;;;2.70;99.90;;;;;;5093014;28;20535;-58
2022/04/01 10:09:33;;;;;;;4.23;2.43;;;2.70;99.90;;;;;;5093189;28;20219;-58
2022/04/01 10:12:04;;;;;;;3.37;2.57;;;2.70;99.90;;;;;;5093081;28;20180;-58
2022/04/01 10:14:31;;;;;;;2.90;2.40;;;2.80;99.90;;;;;;5093046;28;20176;-58
2022/04/01 10:17:00;;;;;;;3.93;2.10;;;2.70;99.90;;;;;;5092887;28;20178;-58
2022/04/01 10:19:30;;;;;;;2.93;2.60;;;2.80;99.90;;;;;;5092930;28;20260;-58
2022/04/01 10:21:56;;;;;;;3.27;2.57;;;2.90;99.90;;;;;;5092779;28;20176;-58
2022/04/01 10:24:47;;;;;;;4.70;3.10;;;3.00;99.90;;;;;;5092996;28;20177;-58
2022/04/01 10:27:37;;;;;;;5.30;2.60;;;3.10;99.90;;;;;;5092884;28;20202;-58
2022/04/01 10:30:04;;;;;;;2.47;2.27;;;3.30;99.90;;;;;;5092658;28;20200;-58
2022/04/01 10:32:34;;;;;;;3.17;2.20;;;3.30;99.90;;;;;;5092776;28;20196;-58
2022/04/01 10:35:02;;;;;;;3.30;2.37;;;3.30;99.90;;;;;;5093211;28;20169;-58
2022/04/01 10:37:31;;;;;;;5.63;3.00;;;3.40;99.90;;;;;;5092877;28;20209;-58
2022/04/01 10:40:06;;;;;;;3.30;2.43;;;3.50;99.90;;;;;;5092626;28;20243;-58
2022/04/01 10:42:32;;;;;;;2.93;2.63;;;3.60;99.90;;;;;;5093479;28;20698;-58
2022/04/01 10:45:19;;;;;;;3.10;2.13;;;3.90;99.90;;;;;;5096273;28;20167;-58
2022/04/01 10:53:37;;;;;;;3.63;2.43;;;3.50;99.90;;;;;;5096465;28;20234;-58
2022/04/01 10:56:24;;;;;;;4.17;2.30;;;3.60;99.90;;;;;;5095933;28;20168;-58
2022/04/01 10:59:19;;;;;;;4.43;2.60;;;3.60;99.90;;;;;;5095986;28;20561;-58
2022/04/01 11:01:53;;;;;;;3.00;2.20;;;3.50;99.90;;;;;;5096273;28;20507;-58
2022/04/01 11:04:19;;;;;;;2.80;2.50;;;3.50;99.90;;;;;;5096273;28;20184;-57
2022/04/01 11:06:58;;;;;;;3.63;1.90;;;3.40;99.90;;;;;;5095844;28;20586;-58
2022/04/01 11:09:42;;;;;;;3.90;2.20;;;3.30;99.90;;;;;;5095989;28;20173;-58
2022/04/01 11:12:20;;;;;;;2.30;2.00;;;3.30;99.90;;;;;;5096073;28;20169;-58
2022/04/01 11:14:59;;;;;;;3.80;2.37;;;3.30;99.90;;;;;;5095771;28;20314;-58
2022/04/01 11:17:51;;;;;;;3.27;2.10;;;3.20;99.90;;;;;;5095777;28;20166;-58
2022/04/01 11:20:21;;;;;;;3.30;2.10;;;3.30;99.90;;;;;;5095515;28;20179;-58
2022/04/01 11:23:00;;;;;;;2.97;1.83;;;3.40;99.90;;;;;;5095797;28;20266;-58
2022/04/01 11:25:27;;;;;;;4.03;2.10;;;3.40;99.90;;;;;;5095656;28;20165;-58
2022/04/01 11:28:16;;;;;;;4.07;1.93;;;3.40;99.90;;;;;;5095379;28;20197;-58
2022/04/01 11:30:49;;;;;;;2.30;1.73;;;3.50;99.90;;;;;;5095413;28;20162;-58
2022/04/01 11:33:20;;;;;;;3.50;2.10;;;3.70;99.90;;;;;;5095507;28;20189;-58
2022/04/01 11:35:49;;;;;;;3.63;2.40;;;3.70;99.90;;;;;;5095275;28;20197;-58
2022/04/01 11:38:18;;;;;;;5.13;2.10;;;3.70;99.90;;;;;;5095329;28;20184;-58
2022/04/01 11:40:45;;;;;;;3.87;2.30;;;3.70;99.90;;;;;;5095192;28;20166;-58
2022/04/01 11:43:16;;;;;;;3.43;2.20;;;3.70;99.90;;;;;;5095019;28;20173;-58
2022/04/01 11:45:46;;;;;;;2.83;2.17;;;3.70;99.90;;;;;;5095651;28;20355;-58
2022/04/01 11:48:44;;;;;;;6.47;3.67;;;3.60;99.90;;;;;;5095160;28;20211;-58
2022/04/01 11:51:15;;;;;;;2.30;1.93;;;3.70;99.90;;;;;;5075187;28;20193;-58
2022/04/01 11:53:47;;;;;;;2.70;2.17;;;3.80;99.90;;;;;;5094862;28;20501;-58
2022/04/01 11:56:13;;;;;;;3.87;2.30;;;3.80;99.90;;;;;;5094888;28;20169;-58
2022/04/01 11:58:53;;;;;;;2.90;2.10;;;3.80;99.90;;;;;;5095021;28;20623;-58
2022/04/01 12:01:20;;;;;;;3.00;2.10;;;3.80;99.90;;;;;;5094989;28;20259;-58
2022/04/01 12:03:46;;;;;;;5.83;2.87;;;3.80;99.90;;;;;;5095227;28;20291;-58
2022/04/01 12:09:05;;;;;;;3.20;2.20;;;3.80;99.90;;;;;;5095047;28;20192;-58
2022/04/01 12:11:39;;;;;;;3.93;3.00;;;3.90;99.90;;;;;;5094770;28;20166;-58
2022/04/01 12:14:05;;;;;;;4.80;3.63;;;4.00;99.90;;;;;;5094600;28;20169;-58
2022/04/01 12:16:30;;;;;;;3.60;2.20;;;4.20;99.90;;;;;;5094441;28;20233;-58
2022/04/01 12:18:57;;;;;;;4.70;3.40;;;4.30;99.90;;;;;;5094733;28;20173;-58
2022/04/01 12:21:24;;;;;;;9.53;6.33;;;4.40;99.90;;;;;;5094563;28;20195;-58
2022/04/01 12:23:51;;;;;;;4.03;3.17;;;4.30;99.90;;;;;;5094486;28;20173;-58
2022/04/01 12:26:18;;;;;;;6.27;5.40;;;4.10;99.90;;;;;;5094216;28;20608;-58
2022/04/01 12:28:47;;;;;;;3.60;2.40;;;4.10;99.90;;;;;;5094246;28;20204;-58
2022/04/01 12:31:25;;;;;;;4.10;2.37;;;4.10;99.90;;;;;;5094425;28;20174;-58
2022/04/01 12:33:53;;;;;;;2.80;2.17;;;4.10;99.90;;;;;;5094261;28;20517;-58
2022/04/01 12:36:31;;;;;;;4.87;2.10;;;4.10;99.90;;;;;;5094203;28;20569;-58
2022/04/01 12:39:05;;;;;;;2.80;2.47;;;4.00;99.90;;;;;;5094096;28;20169;-58
2022/04/01 12:41:32;;;;;;;4.23;2.63;;;3.90;99.90;;;;;;5093981;28;20203;-58
2022/04/01 12:44:00;;;;;;;3.27;2.53;;;4.00;99.90;;;;;;5094230;28;20169;-58
2022/04/01 12:46:32;;;;;;;4.57;2.87;;;4.00;99.90;;;;;;5075822;28;20216;-58
2022/04/01 12:49:21;;;;;;;3.67;2.40;;;4.00;99.90;;;;;;5094008;28;20175;-58
2022/04/01 12:51:54;;;;;;;2.67;2.30;;;4.10;99.90;;;;;;5093825;28;20172;-58
2022/04/01 12:54:33;;;;;;;3.13;2.50;;;4.40;99.90;;;;;;5093984;28;20161;-58
2022/04/01 12:57:19;;;;;;;6.17;4.70;;;4.40;99.90;;;;;;5093828;28;20642;-58
2022/04/01 12:59:46;;;;;;;5.13;2.73;;;4.40;99.90;;;;;;5093789;28;20175;-58
2022/04/01 13:02:23;;;;;;;2.53;2.30;;;4.40;99.90;;;;;;5093530;28;20527;-58
2022/04/01 13:04:54;;;;;;;3.77;2.27;;;4.40;99.90;;;;;;5093561;28;20505;-58
2022/04/01 13:07:28;;;;;;;2.60;2.40;;;4.20;99.90;;;;;;5093620;28;20211;-58
2022/04/01 13:10:23;;;;;;;4.47;2.37;;;4.10;99.90;;;;;;5093670;28;20180;-58
2022/04/01 13:12:52;;;;;;;3.03;2.37;;;4.00;99.90;;;;;;5093494;28;20223;-58
2022/04/01 13:15:28;;;;;;;4.70;2.67;;;4.20;99.90;;;;;;5093578;28;20174;-58
2022/04/01 13:17:56;;;;;;;3.20;2.30;;;4.10;99.90;;;;;;5093637;28;20203;-58
2022/04/01 13:20:24;;;;;;;3.20;2.60;;;4.20;99.90;;;;;;5093638;28;20180;-58
2022/04/01 13:22:51;;;;;;;3.57;2.53;;;4.20;99.90;;;;;;5075268;28;20181;-58
2022/04/01 13:25:17;;;;;;;2.83;2.50;;;4.10;99.90;;;;;;5093382;28;20632;-58